Time;durP1;ratioP1;P1;durP2;ratioP2;P2;SDS_P1;SDS_P2;PMS_P1;PMS_P2;Temp;Humidity;BMP_temperature;BMP_pressure;BME280_temperature;BME280_humidity;BME280_pressure;Samples;Min_cycle;Max_cycle;Signal;HPM_P1;HPM_P2
2022/01/23 00:02:14;;;;;;;44.00;33.30;;;;;;;-3.97;81.16;98886.95;109579;1274;22440;-66
2022/01/23 00:04:43;;;;;;;35.60;29.30;;;;;;;-3.96;81.02;98886.65;109667;1273;22225;-66
2022/01/23 00:07:13;;;;;;;39.50;31.80;;;;;;;-3.94;81.03;98882.94;109670;1274;23146;-66
2022/01/23 00:09:42;;;;;;;39.70;30.40;;;;;;;-3.93;81.07;98879.60;109658;1273;22438;-67
2022/01/23 00:12:15;;;;;;;38.60;30.60;;;;;;;-3.94;80.95;98878.41;109644;1274;23148;-67
2022/01/23 00:17:35;;;;;;;41.20;31.50;;;;;;;-3.95;81.13;98879.73;109656;1273;22461;-68
2022/01/23 00:20:14;;;;;;;38.80;28.50;;;;;;;-3.96;81.10;98886.48;109616;1274;22254;-68
2022/01/23 00:22:49;;;;;;;39.30;29.30;;;;;;;-3.98;81.02;98891.44;109647;1273;22534;-67
2022/01/23 00:30:56;;;;;;;40.50;32.30;;;;;;;-3.94;80.98;98896.56;109559;1274;22452;-67
2022/01/23 00:33:26;;;;;;;37.50;31.90;;;;;;;-3.97;81.02;98899.43;109672;1273;23229;-67
2022/01/23 00:35:55;;;;;;;37.20;30.10;;;;;;;-3.99;81.07;98895.87;109490;1274;23289;-68
2022/01/23 00:38:23;;;;;;;39.00;29.40;;;;;;;-4.01;81.11;98896.42;109655;1274;22549;-66
2022/01/23 00:40:52;;;;;;;33.90;26.70;;;;;;;-4.01;81.07;98896.90;109645;1273;22539;-66
2022/01/23 00:43:30;;;;;;;33.20;27.70;;;;;;;-4.01;81.00;98894.67;109651;1274;22494;-66
2022/01/23 00:48:49;;;;;;;39.50;30.70;;;;;;;-4.04;81.02;98888.39;109615;1274;22439;-66
2022/01/23 00:51:18;;;;;;;38.90;27.90;;;;;;;-4.06;81.09;98891.16;109638;1274;22427;-68
2022/01/23 00:53:46;;;;;;;39.30;28.80;;;;;;;-4.07;81.12;98892.60;109568;1274;22406;-68
2022/01/23 00:56:14;;;;;;;34.50;27.60;;;;;;;-4.07;80.96;98893.65;109673;1273;22409;-69
2022/01/23 00:58:42;;;;;;;38.30;27.90;;;;;;;-4.05;81.06;98897.57;109688;1272;22521;-68
2022/01/23 01:01:12;;;;;;;39.10;31.10;;;;;;;-4.03;81.00;98901.02;109665;1273;22536;-71
2022/01/23 01:03:41;;;;;;;39.70;31.30;;;;;;;-4.02;81.09;98900.90;109656;1273;23342;-69
2022/01/23 01:06:09;;;;;;;42.10;32.30;;;;;;;-4.03;81.13;98904.66;109686;1274;23004;-69
2022/01/23 01:08:40;;;;;;;39.70;29.90;;;;;;;-4.04;81.14;98898.28;109512;1274;22496;-69
2022/01/23 01:34:01;;;;;;;32.70;24.60;;;;;;;-4.08;80.99;98891.25;109570;1274;22488;-68
2022/01/23 01:39:17;;;;;;;32.00;24.70;;;;;;;-4.13;81.01;98894.06;109470;1274;22428;-69
2022/01/23 01:41:47;;;;;;;32.10;26.10;;;;;;;-4.15;80.95;98888.92;109647;1274;22493;-69
2022/01/23 01:44:16;;;;;;;34.50;26.90;;;;;;;-4.14;81.02;98894.20;109475;1274;139054;-68
2022/01/23 01:47:03;;;;;;;31.20;24.60;;;;;;;-4.08;80.93;98897.05;109650;1274;22582;-67
2022/01/23 01:49:38;;;;;;;37.60;27.30;;;;;;;-4.05;80.90;98896.92;109672;1273;22391;-68
2022/01/23 01:52:11;;;;;;;35.70;28.00;;;;;;;-4.05;81.01;98893.23;109676;1273;23241;-68
2022/01/23 01:54:40;;;;;;;40.90;29.60;;;;;;;-4.07;80.96;98891.90;109592;1274;22422;-68
2022/01/23 01:57:21;;;;;;;39.20;28.00;;;;;;;-4.11;80.98;98886.64;109645;1274;22496;-65
2022/01/23 02:00:54;;;;;;;30.00;22.70;;;;;;;-4.15;80.84;98893.98;109672;1272;22440;-66
2022/01/23 02:08:54;;;;;;;28.30;23.40;;;;;;;-4.15;80.90;98892.80;109649;1274;23159;-68
2022/01/23 02:11:57;;;;;;;33.90;27.60;;;;;;;-4.15;80.91;98891.20;109591;1274;22608;-66
2022/01/23 02:14:37;;;;;;;32.80;25.90;;;;;;;-4.21;80.91;98892.89;109516;1274;22707;-68
2022/01/23 02:17:27;;;;;;;32.90;26.60;;;;;;;-4.23;80.90;98892.68;109486;1275;22425;-67
2022/01/23 02:23:09;;;;;;;35.90;27.50;;;;;;;-4.25;80.87;98893.66;109672;1273;23367;-67
2022/01/23 02:51:33;;;;;;;32.70;27.50;;;;;;;-4.37;81.03;98910.73;109677;1272;23208;-66
2022/01/23 02:56:51;;;;;;;32.70;28.40;;;;;;;-4.30;80.97;98916.46;109573;1274;22521;-67
2022/01/23 02:59:27;;;;;;;35.00;30.30;;;;;;;-4.28;81.00;98911.23;109658;1274;22458;-67
2022/01/23 03:05:02;;;;;;;35.70;30.90;;;;;;;-4.24;81.01;98912.11;109663;1274;22367;-66
2022/01/23 03:10:25;;;;;;;39.70;30.80;;;;;;;-4.34;80.89;98907.55;109656;1274;22515;-67
2022/01/23 03:16:10;;;;;;;40.10;35.80;;;;;;;-4.27;80.95;98914.69;109513;1274;22437;-67
2022/01/23 03:30:02;;;;;;;45.70;35.70;;;;;;;-4.40;81.08;98922.70;109362;1274;23263;-67
2022/01/23 03:32:39;;;;;;;42.40;37.70;;;;;;;-4.38;80.91;98924.06;109529;1274;22564;-67
2022/01/23 03:35:12;;;;;;;51.00;41.10;;;;;;;-4.41;80.82;98920.69;109658;1273;23310;-67
2022/01/23 03:37:45;;;;;;;49.50;40.60;;;;;;;-4.49;80.81;98916.55;109693;1274;22267;-68
2022/01/23 03:40:19;;;;;;;50.60;40.50;;;;;;;-4.56;80.82;98914.18;109657;1273;22508;-68
2022/01/23 03:42:57;;;;;;;46.10;37.90;;;;;;;-4.65;80.95;98910.34;109601;1274;22545;-68
2022/01/23 03:51:26;;;;;;;50.20;41.30;;;;;;;-4.77;80.91;98908.52;109436;1274;22458;-68
2022/01/23 03:53:59;;;;;;;50.00;41.00;;;;;;;-4.82;80.89;98912.55;109618;1274;22537;-68
2022/01/23 03:56:33;;;;;;;50.10;41.90;;;;;;;-4.87;80.99;98903.56;109694;1273;23293;-67
2022/01/23 03:59:07;;;;;;;46.90;40.00;;;;;;;-4.88;81.04;98908.43;109571;1273;138144;-66
2022/01/23 04:01:41;;;;;;;46.70;39.50;;;;;;;-4.91;81.12;98910.15;109682;1272;22513;-67
2022/01/23 04:07:28;;;;;;;46.90;41.00;;;;;;;-4.93;80.96;98921.87;109710;1272;23320;-67
2022/01/23 04:09:59;;;;;;;49.20;42.20;;;;;;;-4.93;81.09;98925.09;109609;1274;22550;-67
2022/01/23 04:12:50;;;;;;;48.70;40.70;;;;;;;-4.92;81.14;98927.77;109606;1274;23248;-67
2022/01/23 04:21:14;;;;;;;46.40;39.80;;;;;;;-4.96;81.06;98939.41;109607;1274;22531;-67
2022/01/23 04:33:13;;;;;;;45.30;38.20;;;;;;;-5.03;81.49;98947.23;109212;1272;22541;-68
2022/01/23 04:47:40;;;;;;;50.90;44.80;;;;;;;-4.96;81.26;98962.20;109687;1272;23108;-69
2022/01/23 05:01:01;;;;;;;53.20;45.60;;;;;;;-4.96;81.47;98953.06;109652;1274;23207;-69
2022/01/23 05:07:16;;;;;;;51.60;41.50;;;;;;;-4.97;81.63;98952.21;108738;1274;22594;-69
2022/01/23 05:10:04;;;;;;;48.10;39.80;;;;;;;-4.99;81.40;98948.21;109676;1274;22530;-68
2022/01/23 05:12:52;;;;;;;52.90;45.40;;;;;;;-4.98;81.43;98955.25;109682;1272;22496;-68
2022/01/23 05:15:21;;;;;;;59.40;46.20;;;;;;;-4.96;81.56;98960.20;109602;1274;22554;-69
2022/01/23 05:17:51;;;;;;;52.80;46.80;;;;;;;-4.98;81.44;98965.09;109608;1273;22551;-68
2022/01/23 05:20:20;;;;;;;55.90;50.00;;;;;;;-5.02;81.66;98971.58;109697;1272;22439;-69
2022/01/23 05:22:52;;;;;;;64.40;49.90;;;;;;;-5.03;81.76;98974.33;109603;1272;23293;-69
2022/01/23 05:25:27;;;;;;;50.40;44.40;;;;;;;-5.00;81.86;98974.41;109566;1274;22546;-67
2022/01/23 05:27:55;;;;;;;51.70;45.10;;;;;;;-4.98;81.55;98972.04;109677;1272;23671;-67
2022/01/23 05:30:23;;;;;;;54.10;46.00;;;;;;;-4.93;81.52;98970.07;109677;1274;22415;-67
2022/01/23 05:32:52;;;;;;;53.00;46.10;;;;;;;-4.91;81.74;98965.35;109603;1274;22573;-68
2022/01/23 05:35:22;;;;;;;55.40;49.50;;;;;;;-4.91;81.61;98967.96;109668;1274;22551;-68
2022/01/23 05:37:51;;;;;;;58.20;50.60;;;;;;;-4.94;81.62;98971.33;109616;1274;23299;-68
2022/01/23 05:40:26;;;;;;;63.30;50.40;;;;;;;-4.97;81.69;98976.20;109610;1273;22477;-68
2022/01/23 05:42:55;;;;;;;57.90;48.00;;;;;;;-5.01;81.76;98973.79;109498;1274;22466;-69
2022/01/23 05:45:24;;;;;;;53.50;45.40;;;;;;;-4.99;81.83;98976.44;109685;1274;23142;-69
2022/01/23 05:48:09;;;;;;;53.10;47.40;;;;;;;-4.96;81.74;98973.56;109688;1273;22421;-68
2022/01/23 05:50:47;;;;;;;54.10;48.40;;;;;;;-4.97;81.62;98968.16;109626;1273;22515;-68
2022/01/23 05:53:27;;;;;;;56.50;50.50;;;;;;;-5.03;81.90;98972.10;109674;1273;22595;-67
2022/01/23 05:56:16;;;;;;;65.40;54.10;;;;;;;-5.08;81.95;98967.91;109666;1273;22412;-68
2022/01/23 05:59:23;;;;;;;54.60;47.40;;;;;;;-5.12;81.93;98970.79;109111;1274;22560;-67
2022/01/23 06:01:52;;;;;;;55.00;46.40;;;;;;;-5.11;81.96;98972.58;109572;1274;23376;-67
2022/01/23 06:04:26;;;;;;;51.50;46.10;;;;;;;-5.09;81.98;98972.06;109598;1274;22426;-68
2022/01/23 06:07:01;;;;;;;57.00;49.60;;;;;;;-5.01;82.01;98962.29;109580;1274;138433;-68
2022/01/23 06:09:29;;;;;;;60.40;51.90;;;;;;;-4.96;82.10;98973.51;109590;1274;23318;-68
2022/01/23 06:11:58;;;;;;;58.90;52.50;;;;;;;-4.96;82.14;98979.10;109585;1274;22498;-66
2022/01/23 06:14:26;;;;;;;61.70;55.10;;;;;;;-4.93;82.33;98981.94;109599;1274;22527;-66
2022/01/23 06:16:54;;;;;;;61.80;54.80;;;;;;;-4.90;82.37;98987.50;109696;1273;22439;-66
2022/01/23 06:19:51;;;;;;;57.00;51.00;;;;;;;-4.94;82.35;98993.70;108858;1274;22512;-67
2022/01/23 06:22:46;;;;;;;53.60;47.80;;;;;;;-4.92;82.04;98980.54;109663;1273;23609;-66
2022/01/23 06:25:36;;;;;;;57.20;51.20;;;;;;;-4.88;82.18;98981.31;109602;1274;22438;-67
2022/01/23 06:29:01;;;;;;;57.80;51.70;;;;;;;-4.83;82.38;98989.69;109536;1275;22495;-67
2022/01/23 06:31:29;;;;;;;61.20;54.70;;;;;;;-4.79;82.39;98992.70;109695;1272;22507;-66
2022/01/23 06:33:58;;;;;;;67.60;60.20;;;;;;;-4.75;82.59;99002.80;109566;1272;23228;-67
2022/01/23 06:36:26;;;;;;;68.50;61.20;;;;;;;-4.72;82.53;99009.95;109676;1274;22443;-68
2022/01/23 06:38:54;;;;;;;64.90;56.50;;;;;;;-4.70;82.33;99020.68;109594;1274;23225;-69
2022/01/23 06:41:22;;;;;;;63.20;53.70;;;;;;;-4.68;82.30;99026.65;109485;1274;137843;-67
2022/01/23 06:44:21;;;;;;;60.60;53.00;;;;;;;-4.63;82.15;99033.30;108989;1274;22698;-67
2022/01/23 06:46:50;;;;;;;62.20;53.90;;;;;;;-4.58;82.27;99021.38;109667;1273;22549;-67
2022/01/23 06:49:18;;;;;;;63.30;56.70;;;;;;;-4.57;82.05;99024.62;109606;1274;22875;-66
2022/01/23 06:51:49;;;;;;;63.40;56.60;;;;;;;-4.62;82.19;99023.23;109610;1274;22457;-67
2022/01/23 06:54:17;;;;;;;65.90;58.90;;;;;;;-4.67;82.31;99027.43;109608;1273;23890;-66
2022/01/23 06:56:46;;;;;;;58.10;50.80;;;;;;;-4.70;82.28;99023.42;109595;1274;22280;-67
2022/01/23 06:59:15;;;;;;;54.20;48.30;;;;;;;-4.71;82.35;99026.50;109571;1274;22348;-66
2022/01/23 07:01:47;;;;;;;64.40;54.70;;;;;;;-4.70;82.30;99029.08;109639;1274;22614;-67
2022/01/23 07:04:39;;;;;;;61.80;54.80;;;;;;;-4.68;82.48;99038.65;109567;1274;22410;-67
2022/01/23 07:07:14;;;;;;;64.10;57.30;;;;;;;-4.66;82.39;99044.19;109603;1274;22276;-67
2022/01/23 07:09:51;;;;;;;63.20;56.60;;;;;;;-4.62;82.72;99050.52;109671;1274;23102;-66
2022/01/23 07:12:38;;;;;;;66.80;59.90;;;;;;;-4.54;82.86;99050.20;109665;1272;23164;-68
2022/01/23 07:15:20;;;;;;;66.70;59.50;;;;;;;-4.50;82.56;99048.76;109557;1274;22434;-67
2022/01/23 07:18:07;;;;;;;59.90;53.30;;;;;;;-4.52;82.54;99054.02;109674;1273;22460;-68
2022/01/23 07:20:39;;;;;;;62.30;54.30;;;;;;;-4.51;82.49;99063.25;109583;1274;22474;-67
2022/01/23 07:23:21;;;;;;;59.30;52.50;;;;;;;-4.47;82.40;99069.21;109604;1274;23130;-67
2022/01/23 07:25:51;;;;;;;64.00;57.30;;;;;;;-4.41;82.42;99070.49;109610;1274;22547;-67
2022/01/23 07:28:23;;;;;;;63.40;56.80;;;;;;;-4.39;82.44;99072.48;109583;1274;22435;-68
2022/01/23 07:30:54;;;;;;;64.00;57.60;;;;;;;-4.39;82.58;99072.16;109635;1274;23294;-69
2022/01/23 07:33:22;;;;;;;68.30;61.40;;;;;;;-4.36;82.59;99074.30;109605;1274;22478;-68
2022/01/23 07:35:51;;;;;;;80.30;68.30;;;;;;;-4.35;82.69;99079.15;109638;1271;22458;-68
2022/01/23 07:38:19;;;;;;;95.60;72.20;;;;;;;-4.34;82.75;99076.30;109588;1274;23615;-68
2022/01/23 07:41:01;;;;;;;75.40;64.90;;;;;;;-4.30;82.73;99072.54;109607;1274;22484;-67
2022/01/23 07:43:41;;;;;;;107.00;74.10;;;;;;;-4.25;82.56;99076.39;109612;1274;23280;-67
2022/01/23 07:46:41;;;;;;;114.60;81.30;;;;;;;-4.20;82.57;99078.85;109190;1273;22564;-67
2022/01/23 07:49:16;;;;;;;125.40;88.60;;;;;;;-4.18;82.63;99082.41;109661;1273;22460;-68
2022/01/23 07:52:10;;;;;;;79.60;71.50;;;;;;;-4.14;82.76;99089.17;109461;1272;22435;-67
2022/01/23 07:55:09;;;;;;;82.20;73.20;;;;;;;-4.13;82.89;99087.58;109610;1274;22599;-68
2022/01/23 07:57:53;;;;;;;76.20;68.00;;;;;;;-4.15;82.64;99083.94;109602;1274;22402;-67
2022/01/23 08:00:35;;;;;;;61.50;55.30;;;;;;;-4.18;82.64;99089.03;109541;1274;22690;-66
2022/01/23 08:03:04;;;;;;;60.10;53.80;;;;;;;-4.18;82.69;99097.52;109564;1274;22551;-67
2022/01/23 08:06:01;;;;;;;68.30;61.00;;;;;;;-4.14;82.74;99109.63;109574;1272;22568;-67
2022/01/23 08:08:48;;;;;;;81.80;71.20;;;;;;;-4.06;82.79;99109.88;109677;1273;22459;-67
2022/01/23 08:11:22;;;;;;;77.90;64.60;;;;;;;-4.01;82.80;99118.09;109693;1273;23136;-67
2022/01/23 08:13:50;;;;;;;73.50;66.00;;;;;;;-3.97;82.86;99127.99;109685;1274;22487;-68
2022/01/23 08:16:18;;;;;;;69.70;62.40;;;;;;;-3.94;82.84;99134.30;109687;1274;22544;-67
2022/01/23 08:18:47;;;;;;;70.60;63.10;;;;;;;-3.90;82.94;99136.42;109649;1274;22403;-67
2022/01/23 08:21:15;;;;;;;63.30;56.50;;;;;;;-3.89;82.79;99140.14;109673;1274;22447;-68
2022/01/23 08:23:43;;;;;;;60.10;53.60;;;;;;;-3.84;82.84;99142.05;109675;1273;22506;-68
2022/01/23 08:26:12;;;;;;;64.00;57.10;;;;;;;-3.75;82.77;99143.14;109675;1274;22356;-67
2022/01/23 08:28:40;;;;;;;64.70;58.10;;;;;;;-3.66;82.68;99143.16;109679;1273;23054;-66
2022/01/23 08:31:07;;;;;;;61.00;54.70;;;;;;;-3.65;82.53;99145.01;109638;1274;22520;-67
2022/01/23 08:33:36;;;;;;;61.90;55.20;;;;;;;-3.72;82.43;99149.79;109692;1273;22310;-67
2022/01/23 08:36:04;;;;;;;62.80;56.20;;;;;;;-3.76;82.75;99154.95;109660;1274;23121;-67
2022/01/23 08:38:32;;;;;;;65.20;58.50;;;;;;;-3.74;82.83;99160.45;109692;1273;22528;-67
2022/01/23 08:43:51;;;;;;;66.50;59.60;;;;;;;-3.57;82.86;99157.50;109693;1273;22493;-67
2022/01/23 08:46:19;;;;;;;62.30;55.90;;;;;;;-3.48;82.79;99159.33;109683;1273;23196;-67
2022/01/23 08:48:48;;;;;;;62.80;56.50;;;;;;;-3.42;82.62;99161.09;109551;1274;138937;-70
2022/01/23 08:51:16;;;;;;;66.00;59.30;;;;;;;-3.39;82.76;99166.96;109667;1274;22548;-69
2022/01/23 08:53:44;;;;;;;65.20;58.50;;;;;;;-3.40;82.43;99170.72;109602;1274;22449;-67
2022/01/23 08:56:13;;;;;;;69.60;61.30;;;;;;;-3.44;82.50;99171.91;109614;1274;22606;-68
2022/01/23 08:58:41;;;;;;;63.50;56.60;;;;;;;-3.46;82.57;99173.49;109683;1273;22517;-69
2022/01/23 09:01:09;;;;;;;62.30;55.70;;;;;;;-3.44;82.67;99174.02;109675;1274;23111;-68
2022/01/23 09:03:39;;;;;;;60.60;54.30;;;;;;;-3.36;82.71;99173.50;109685;1273;22623;-68
2022/01/23 09:06:08;;;;;;;63.30;54.50;;;;;;;-3.26;82.77;99177.56;109673;1274;22422;-68
2022/01/23 09:08:38;;;;;;;62.40;55.60;;;;;;;-3.22;82.43;99182.20;109670;1274;22537;-69
2022/01/23 09:11:08;;;;;;;67.00;60.10;;;;;;;-3.21;82.26;99187.27;109693;1273;23202;-69
2022/01/23 09:16:07;;;;;;;66.70;59.50;;;;;;;-3.28;82.42;99196.73;109677;1274;23261;-69
2022/01/23 09:18:36;;;;;;;65.40;58.30;;;;;;;-3.28;82.33;99190.83;109695;1273;22336;-69
2022/01/23 09:21:04;;;;;;;61.10;54.80;;;;;;;-3.23;82.52;99192.00;109683;1274;22492;-69
2022/01/23 09:23:33;;;;;;;60.10;53.80;;;;;;;-3.18;82.49;99193.88;109652;1274;22574;-68
2022/01/23 09:26:08;;;;;;;57.40;50.50;;;;;;;-3.15;82.56;99186.38;109677;1273;22466;-70
2022/01/23 09:28:39;;;;;;;52.30;46.60;;;;;;;-3.16;82.42;99187.85;109662;1273;22530;-69
2022/01/23 09:31:07;;;;;;;53.30;46.90;;;;;;;-3.22;82.14;99191.63;109676;1274;23102;-69
2022/01/23 09:33:38;;;;;;;54.00;48.40;;;;;;;-3.26;82.26;99190.91;109674;1274;22474;-70
2022/01/23 09:36:06;;;;;;;60.10;49.60;;;;;;;-3.22;82.22;99190.61;109674;1274;22431;-69
2022/01/23 09:38:34;;;;;;;59.90;53.40;;;;;;;-3.22;82.29;99197.23;109673;1274;23044;-69
2022/01/23 09:41:03;;;;;;;51.60;46.10;;;;;;;-3.14;82.45;99198.55;109664;1274;22448;-72
2022/01/23 09:43:32;;;;;;;53.80;47.90;;;;;;;-3.14;82.23;99195.71;109694;1274;23233;-70
2022/01/23 09:46:05;;;;;;;55.90;48.30;;;;;;;-3.08;82.26;99196.95;109669;1273;22440;-70
2022/01/23 09:48:35;;;;;;;59.30;53.00;;;;;;;-3.06;82.14;99193.03;109660;1273;22528;-69
2022/01/23 09:51:04;;;;;;;63.70;55.90;;;;;;;-3.07;82.12;99178.71;109662;1272;22438;-70
2022/01/23 09:53:32;;;;;;;65.10;54.80;;;;;;;-3.04;82.25;99178.48;109686;1273;22458;-70
2022/01/23 09:56:05;;;;;;;55.50;45.80;;;;;;;-3.00;82.30;99176.30;109592;1274;22276;-70
2022/01/23 09:58:33;;;;;;;60.70;54.10;;;;;;;-2.90;81.95;99176.37;109555;1272;139351;-67
2022/01/23 10:01:01;;;;;;;66.00;54.40;;;;;;;-2.84;82.14;99177.64;109686;1273;22515;-68
2022/01/23 10:03:30;;;;;;;66.10;55.90;;;;;;;-2.78;81.94;99179.10;109692;1274;22503;-69
2022/01/23 10:05:58;;;;;;;64.40;53.90;;;;;;;-2.75;81.97;99177.70;109671;1274;22527;-67
2022/01/23 10:08:29;;;;;;;57.10;50.30;;;;;;;-2.72;81.87;99178.86;109676;1274;22404;-69
2022/01/23 10:10:58;;;;;;;53.70;47.90;;;;;;;-2.73;81.79;99184.63;109691;1273;22446;-69
2022/01/23 10:13:27;;;;;;;53.70;47.90;;;;;;;-2.74;81.42;99185.70;109663;1273;22467;-69
2022/01/23 10:15:55;;;;;;;53.70;47.80;;;;;;;-2.73;81.69;99181.60;109691;1274;22404;-69
2022/01/23 10:18:24;;;;;;;55.80;50.00;;;;;;;-2.67;81.78;99174.92;109672;1274;22425;-70
2022/01/23 10:20:52;;;;;;;58.90;50.90;;;;;;;-2.55;81.92;99174.34;109681;1273;22544;-68
2022/01/23 10:23:21;;;;;;;56.50;49.20;;;;;;;-2.45;81.59;99171.60;109689;1274;22580;-70
2022/01/23 10:25:51;;;;;;;52.00;46.30;;;;;;;-2.39;81.37;99169.89;109689;1274;23523;-70
2022/01/23 10:28:23;;;;;;;54.50;48.70;;;;;;;-2.39;81.18;99173.42;109573;1272;137998;-70
2022/01/23 10:30:58;;;;;;;57.00;50.40;;;;;;;-2.44;80.71;99174.05;109680;1274;22556;-70
2022/01/23 10:33:38;;;;;;;54.00;48.50;;;;;;;-2.37;81.58;99180.83;109584;1274;22572;-69
2022/01/23 10:36:07;;;;;;;51.60;45.80;;;;;;;-2.34;80.89;99183.72;109678;1274;23277;-69
2022/01/23 10:38:47;;;;;;;50.60;44.40;;;;;;;-2.41;80.93;99188.63;109689;1273;23489;-66
2022/01/23 10:50:04;;;;;;;44.00;38.80;;;;;;;-2.43;80.76;99193.50;109183;1279;22476;-69
2022/01/23 10:52:38;;;;;;;41.80;37.30;;;;;;;-2.40;80.87;99192.40;109178;1279;22571;-68
2022/01/23 10:55:12;;;;;;;44.80;39.30;;;;;;;-2.36;80.50;99191.08;109152;1279;22494;-69
2022/01/23 10:58:10;;;;;;;43.00;38.30;;;;;;;-2.41;80.41;99182.00;109176;1279;22400;-68
2022/01/23 11:00:40;;;;;;;46.40;38.40;;;;;;;-2.41;80.89;99181.09;108846;1281;139241;-68
2022/01/23 11:03:23;;;;;;;41.50;36.50;;;;;;;-2.30;80.78;99180.31;109150;1279;22393;-68
2022/01/23 11:05:56;;;;;;;41.10;36.70;;;;;;;-2.27;80.37;99174.90;109151;1279;22499;-68
2022/01/23 11:08:31;;;;;;;42.80;38.10;;;;;;;-2.28;80.45;99169.81;109187;1280;22680;-69
2022/01/23 11:11:08;;;;;;;40.70;36.30;;;;;;;-2.30;80.42;99168.13;109168;1279;22609;-68
2022/01/23 11:19:39;;;;;;;49.10;43.60;;;;;;;-2.25;80.14;99166.23;109135;1280;22583;-68
2022/01/23 11:22:25;;;;;;;46.60;40.90;;;;;;;-2.23;80.42;99168.38;109158;1280;22931;-67
2022/01/23 11:25:01;;;;;;;47.60;40.60;;;;;;;-2.18;80.15;99164.98;109149;1279;22622;-66
2022/01/23 11:27:43;;;;;;;41.20;36.80;;;;;;;-2.16;80.26;99162.94;109598;1273;22612;-67
2022/01/23 11:30:23;;;;;;;41.60;36.80;;;;;;;-2.05;80.36;99166.95;109683;1274;23309;-68
2022/01/23 11:32:56;;;;;;;47.30;40.80;;;;;;;-2.00;80.32;99165.83;109692;1274;22529;-66
2022/01/23 11:35:42;;;;;;;49.20;43.90;;;;;;;-1.93;80.33;99160.84;109665;1274;22539;-68
2022/01/23 11:38:13;;;;;;;44.00;39.30;;;;;;;-1.90;80.06;99171.75;109687;1274;22491;-70
2022/01/23 11:55:42;;;;;;;47.30;40.80;;;;;;;-1.83;79.59;99179.52;109669;1274;22509;-71
2022/01/23 11:58:38;;;;;;;50.40;41.90;;;;;;;-1.80;79.52;99185.67;109672;1273;23070;-72
2022/01/23 12:01:26;;;;;;;46.60;41.60;;;;;;;-1.84;79.62;99186.54;109692;1273;23188;-71
2022/01/23 12:04:07;;;;;;;49.90;42.10;;;;;;;-1.80;79.86;99184.09;109688;1273;22473;-72
2022/01/23 12:06:42;;;;;;;39.60;33.80;;;;;;;-1.74;79.53;99185.86;109690;1274;22559;-70
2022/01/23 12:09:20;;;;;;;44.20;39.40;;;;;;;-1.69;79.56;99189.70;109686;1274;22406;-69
2022/01/23 12:12:03;;;;;;;46.80;41.60;;;;;;;-1.65;79.63;99189.82;109677;1273;22465;-72
2022/01/23 12:17:39;;;;;;;48.70;43.70;;;;;;;-1.52;79.50;99189.10;109683;1273;22461;-70
2022/01/23 12:20:31;;;;;;;52.60;46.90;;;;;;;-1.51;79.61;99189.52;109681;1274;22461;-70
2022/01/23 12:23:05;;;;;;;45.00;39.90;;;;;;;-1.48;79.55;99190.75;109661;1274;23633;-70
2022/01/23 12:25:40;;;;;;;42.80;37.70;;;;;;;-1.44;79.58;99193.46;109698;1274;23181;-71
2022/01/23 12:28:37;;;;;;;45.10;40.20;;;;;;;-1.42;79.33;99185.81;109632;1274;22437;-69
2022/01/23 12:32:30;;;;;;;49.70;44.20;;;;;;;-1.41;79.59;99188.59;109084;1279;23074;-70
2022/01/23 12:35:07;;;;;;;60.30;50.90;;;;;;;-1.36;79.74;99188.17;109138;1280;22680;-71
2022/01/23 12:38:00;;;;;;;66.40;54.50;;;;;;;-1.38;79.46;99185.48;109162;1280;23180;-70
2022/01/23 12:40:31;;;;;;;50.90;45.50;;;;;;;-1.42;79.26;99192.16;109126;1279;22917;-70
2022/01/23 12:43:06;;;;;;;47.20;42.10;;;;;;;-1.43;79.38;99187.27;109136;1279;22507;-71
2022/01/23 12:45:52;;;;;;;41.50;36.30;;;;;;;-1.41;79.21;99190.95;109099;1279;22432;-71
2022/01/23 12:48:26;;;;;;;40.90;36.50;;;;;;;-1.42;78.99;99194.60;109125;1279;22885;-68
2022/01/23 12:50:59;;;;;;;48.00;42.90;;;;;;;-1.44;79.27;99194.52;109107;1280;23237;-70
2022/01/23 12:53:46;;;;;;;49.00;43.60;;;;;;;-1.45;79.53;99195.02;109136;1279;23294;-70
2022/01/23 12:56:28;;;;;;;44.40;39.40;;;;;;;-1.42;79.48;99195.77;109141;1279;23374;-71
2022/01/23 12:59:09;;;;;;;44.30;39.50;;;;;;;-1.42;79.19;99200.17;109122;1279;22533;-70
2022/01/23 13:01:43;;;;;;;45.20;40.60;;;;;;;-1.40;79.35;99204.54;109139;1280;23331;-70
2022/01/23 13:04:13;;;;;;;;;;;;;;;-1.36;78.98;99206.37;109148;1279;22455;-71
2022/01/23 13:06:53;;;;;;;45.10;40.20;;;;;;;-1.40;79.16;99208.94;109151;1279;23271;-71
2022/01/23 13:12:07;;;;;;;46.90;41.80;;;;;;;-1.46;79.31;99201.46;109668;1274;22571;-71
2022/01/23 13:17:56;;;;;;;44.90;40.10;;;;;;;-1.52;78.91;99201.70;108723;1283;22413;-69
2022/01/23 13:31:59;;;;;;;48.70;42.30;;;;;;;-1.50;79.27;99196.64;108707;1283;22398;-72
2022/01/23 13:34:47;;;;;;;46.40;41.40;;;;;;;-1.50;79.05;99193.80;108700;1283;22599;-67
2022/01/23 13:37:22;;;;;;;48.50;42.60;;;;;;;-1.45;79.23;99195.14;108710;1283;23413;-67
2022/01/23 13:39:53;;;;;;;48.40;43.40;;;;;;;-1.43;79.03;99197.88;108634;1283;22517;-67
2022/01/23 13:42:46;;;;;;;44.40;39.60;;;;;;;-1.46;79.08;99202.52;108702;1283;22564;-67
2022/01/23 14:00:12;;;;;;;59.90;50.50;;;;;;;-1.32;79.38;99194.96;109635;1274;22729;-67
2022/01/23 14:02:44;;;;;;;52.10;46.20;;;;;;;-1.27;79.58;99200.91;109649;1274;22462;-68
2022/01/23 14:05:29;;;;;;;55.70;46.00;;;;;;;-1.26;79.34;99205.52;109619;1274;22405;-67
2022/01/23 14:08:00;;;;;;;43.90;39.00;;;;;;;-1.30;79.06;99209.06;109529;1274;138317;-66
2022/01/23 14:10:35;;;;;;;47.10;41.40;;;;;;;-1.34;79.28;99210.90;109650;1273;22341;-65
2022/01/23 14:13:11;;;;;;;45.60;40.70;;;;;;;-1.33;79.15;99211.99;109635;1273;22912;-67
2022/01/23 14:15:58;;;;;;;45.80;40.70;;;;;;;-1.32;79.14;99208.15;109628;1274;22223;-67
2022/01/23 14:18:30;;;;;;;48.00;42.90;;;;;;;-1.31;79.25;99198.77;109641;1274;22443;-66
2022/01/23 14:21:09;;;;;;;51.50;44.90;;;;;;;-1.30;79.39;99211.70;109563;1274;23252;-67
2022/01/23 14:23:37;;;;;;;52.30;44.80;;;;;;;-1.31;79.33;99211.29;109604;1274;22600;-67
2022/01/23 14:26:13;;;;;;;48.60;43.50;;;;;;;-1.32;79.24;99213.19;109638;1273;22436;-67
2022/01/23 14:28:46;;;;;;;52.10;43.40;;;;;;;-1.37;79.27;99216.23;109291;1274;452854;-67
2022/01/23 14:31:20;;;;;;;51.70;44.20;;;;;;;-1.36;79.23;99225.92;109660;1273;22403;-66
2022/01/23 14:33:55;;;;;;;51.80;45.80;;;;;;;-1.34;79.29;99226.39;109620;1274;22501;-65
2022/01/23 14:36:35;;;;;;;56.20;47.90;;;;;;;-1.28;79.47;99228.13;109658;1273;22356;-64
2022/01/23 14:39:04;;;;;;;54.90;49.10;;;;;;;-1.26;79.35;99232.94;109632;1274;22410;-65
2022/01/23 14:41:37;;;;;;;57.30;51.30;;;;;;;-1.32;79.15;99240.61;109560;1274;22452;-66
2022/01/23 14:44:18;;;;;;;60.00;53.50;;;;;;;-1.38;79.31;99243.44;109618;1274;22532;-65
2022/01/23 14:46:52;;;;;;;61.90;52.90;;;;;;;-1.39;79.47;99247.30;109652;1274;22428;-66
2022/01/23 14:49:24;;;;;;;55.90;49.80;;;;;;;-1.41;79.21;99249.27;109525;1274;138207;-66
2022/01/23 14:51:54;;;;;;;64.00;57.00;;;;;;;-1.42;79.36;99246.81;109636;1273;22449;-66
2022/01/23 14:54:25;;;;;;;65.90;55.70;;;;;;;-1.35;79.44;99244.57;109640;1273;22429;-66
2022/01/23 14:56:53;;;;;;;72.50;60.60;;;;;;;-1.27;79.44;99244.98;109650;1274;22473;-66
2022/01/23 14:59:23;;;;;;;67.90;56.80;;;;;;;-1.23;79.56;99244.98;109622;1273;22439;-67
2022/01/23 15:01:53;;;;;;;63.20;55.70;;;;;;;-1.20;79.35;99251.14;109554;1274;22470;-66
2022/01/23 15:04:23;;;;;;;61.10;54.70;;;;;;;-1.19;79.34;99254.86;109644;1273;23299;-68
2022/01/23 15:06:52;;;;;;;62.70;55.40;;;;;;;-1.20;79.28;99255.48;109599;1274;22432;-67
2022/01/23 15:09:22;;;;;;;68.10;58.80;;;;;;;-1.23;79.40;99257.05;109606;1274;22561;-66
2022/01/23 15:11:51;;;;;;;66.90;57.90;;;;;;;-1.22;79.50;99257.67;109619;1274;22470;-67
2022/01/23 15:14:20;;;;;;;64.50;55.90;;;;;;;-1.20;79.45;99254.96;109650;1273;22444;-68
2022/01/23 15:16:50;;;;;;;63.80;53.90;;;;;;;-1.17;79.33;99257.04;109666;1272;22916;-68
2022/01/23 15:19:19;;;;;;;57.80;51.80;;;;;;;-1.14;79.31;99259.58;109657;1273;22684;-68
2022/01/23 15:21:47;;;;;;;58.80;51.80;;;;;;;-1.10;79.35;99268.60;109671;1273;23387;-69